sensor_id;sensor_type;location;lat;lon;timestamp;temperature;humidity
1568;DHT22;777;47.156;8.326;2022-09-09T00:00:53;14.80;99.90
1568;DHT22;777;47.156;8.326;2022-09-09T00:03:26;14.90;99.90
1568;DHT22;777;47.156;8.326;2022-09-09T00:05:59;14.90;99.90
1568;DHT22;777;47.156;8.326;2022-09-09T00:08:41;14.90;99.90
1568;DHT22;777;47.156;8.326;2022-09-09T00:11:13;15.00;99.90
1568;DHT22;777;47.156;8.326;2022-09-09T00:13:46;15.00;99.90
1568;DHT22;777;47.156;8.326;2022-09-09T00:16:17;15.10;99.90
1568;DHT22;777;47.156;8.326;2022-09-09T00:18:52;15.00;99.90
1568;DHT22;777;47.156;8.326;2022-09-09T00:21:26;15.00;99.90
1568;DHT22;777;47.156;8.326;2022-09-09T00:23:56;14.90;99.90
1568;DHT22;777;47.156;8.326;2022-09-09T00:26:32;15.00;99.90
1568;DHT22;777;47.156;8.326;2022-09-09T00:29:13;14.90;99.90
1568;DHT22;777;47.156;8.326;2022-09-09T00:31:41;14.90;99.90
1568;DHT22;777;47.156;8.326;2022-09-09T00:34:11;14.80;99.90
1568;DHT22;777;47.156;8.326;2022-09-09T00:36:39;14.80;99.90
1568;DHT22;777;47.156;8.326;2022-09-09T00:39:23;14.80;99.90
1568;DHT22;777;47.156;8.326;2022-09-09T00:42:02;14.70;99.90
1568;DHT22;777;47.156;8.326;2022-09-09T00:44:31;14.60;99.90
1568;DHT22;777;47.156;8.326;2022-09-09T00:47:12;14.50;99.90
1568;DHT22;777;47.156;8.326;2022-09-09T00:49:52;14.50;99.90
1568;DHT22;777;47.156;8.326;2022-09-09T00:52:32;14.40;99.90
1568;DHT22;777;47.156;8.326;2022-09-09T00:55:10;14.40;99.90
1568;DHT22;777;47.156;8.326;2022-09-09T00:57:38;14.30;99.90
1568;DHT22;777;47.156;8.326;2022-09-09T01:00:20;14.40;99.90
1568;DHT22;777;47.156;8.326;2022-09-09T01:03:02;14.40;99.90
1568;DHT22;777;47.156;8.326;2022-09-09T01:05:36;14.40;99.90
1568;DHT22;777;47.156;8.326;2022-09-09T01:08:14;14.30;99.90
1568;DHT22;777;47.156;8.326;2022-09-09T01:10:50;14.30;99.90
1568;DHT22;777;47.156;8.326;2022-09-09T01:13:24;14.20;99.90
1568;DHT22;777;47.156;8.326;2022-09-09T01:15:53;14.30;99.90
1568;DHT22;777;47.156;8.326;2022-09-09T01:18:23;14.30;99.90
1568;DHT22;777;47.156;8.326;2022-09-09T01:21:02;14.30;99.90
1568;DHT22;777;47.156;8.326;2022-09-09T01:23:54;14.20;99.90
1568;DHT22;777;47.156;8.326;2022-09-09T01:26:32;14.20;99.90
1568;DHT22;777;47.156;8.326;2022-09-09T01:29:06;14.10;99.90
1568;DHT22;777;47.156;8.326;2022-09-09T01:31:38;14.10;99.90
1568;DHT22;777;47.156;8.326;2022-09-09T01:34:10;14.10;99.90
1568;DHT22;777;47.156;8.326;2022-09-09T01:36:42;14.00;99.90
1568;DHT22;777;47.156;8.326;2022-09-09T01:39:10;14.10;99.90
1568;DHT22;777;47.156;8.326;2022-09-09T01:41:38;14.10;99.90
1568;DHT22;777;47.156;8.326;2022-09-09T01:44:09;14.20;99.90
1568;DHT22;777;47.156;8.326;2022-09-09T01:46:39;14.30;99.90
1568;DHT22;777;47.156;8.326;2022-09-09T01:49:12;14.30;99.90
1568;DHT22;777;47.156;8.326;2022-09-09T01:51:41;14.30;99.90
1568;DHT22;777;47.156;8.326;2022-09-09T01:54:12;14.40;99.90
1568;DHT22;777;47.156;8.326;2022-09-09T01:56:49;14.30;99.90
1568;DHT22;777;47.156;8.326;2022-09-09T01:59:30;14.40;99.90
1568;DHT22;777;47.156;8.326;2022-09-09T02:02:09;14.40;99.90
1568;DHT22;777;47.156;8.326;2022-09-09T02:04:41;14.40;99.90
1568;DHT22;777;47.156;8.326;2022-09-09T02:07:24;14.40;99.90
1568;DHT22;777;47.156;8.326;2022-09-09T02:10:05;14.40;99.90
1568;DHT22;777;47.156;8.326;2022-09-09T02:12:42;14.40;99.90
1568;DHT22;777;47.156;8.326;2022-09-09T02:15:17;14.60;99.90
1568;DHT22;777;47.156;8.326;2022-09-09T02:17:50;14.70;99.90
1568;DHT22;777;47.156;8.326;2022-09-09T02:20:20;14.80;99.90
1568;DHT22;777;47.156;8.326;2022-09-09T02:22:56;14.80;99.90
1568;DHT22;777;47.156;8.326;2022-09-09T02:25:27;14.90;99.90
1568;DHT22;777;47.156;8.326;2022-09-09T02:28:01;15.00;99.90
1568;DHT22;777;47.156;8.326;2022-09-09T02:30:31;15.10;99.90
1568;DHT22;777;47.156;8.326;2022-09-09T02:33:02;15.10;99.90
1568;DHT22;777;47.156;8.326;2022-09-09T02:35:42;15.20;99.90
1568;DHT22;777;47.156;8.326;2022-09-09T02:38:12;15.30;99.90
1568;DHT22;777;47.156;8.326;2022-09-09T02:40:46;15.30;99.90
1568;DHT22;777;47.156;8.326;2022-09-09T02:43:15;15.40;99.90
1568;DHT22;777;47.156;8.326;2022-09-09T02:45:50;15.60;99.90
1568;DHT22;777;47.156;8.326;2022-09-09T02:48:25;15.60;99.90
1568;DHT22;777;47.156;8.326;2022-09-09T02:50:57;15.60;99.90
1568;DHT22;777;47.156;8.326;2022-09-09T02:53:35;15.70;99.90
1568;DHT22;777;47.156;8.326;2022-09-09T02:56:07;15.70;99.90
1568;DHT22;777;47.156;8.326;2022-09-09T02:58:41;15.80;99.90
1568;DHT22;777;47.156;8.326;2022-09-09T03:01:09;15.80;99.90
1568;DHT22;777;47.156;8.326;2022-09-09T03:03:36;15.80;99.90
1568;DHT22;777;47.156;8.326;2022-09-09T03:06:08;15.80;99.90
1568;DHT22;777;47.156;8.326;2022-09-09T03:08:35;15.90;99.90
1568;DHT22;777;47.156;8.326;2022-09-09T03:11:02;15.90;99.90
1568;DHT22;777;47.156;8.326;2022-09-09T03:13:33;15.90;99.90
1568;DHT22;777;47.156;8.326;2022-09-09T03:16:02;16.00;99.90
1568;DHT22;777;47.156;8.326;2022-09-09T03:18:32;16.00;99.90
1568;DHT22;777;47.156;8.326;2022-09-09T03:21:00;16.00;99.90
1568;DHT22;777;47.156;8.326;2022-09-09T03:23:29;16.00;99.90
1568;DHT22;777;47.156;8.326;2022-09-09T03:25:59;16.00;99.90
1568;DHT22;777;47.156;8.326;2022-09-09T03:28:35;15.90;99.90
1568;DHT22;777;47.156;8.326;2022-09-09T03:31:05;15.90;99.90
1568;DHT22;777;47.156;8.326;2022-09-09T03:33:39;15.80;99.90
1568;DHT22;777;47.156;8.326;2022-09-09T03:36:08;15.80;99.90
1568;DHT22;777;47.156;8.326;2022-09-09T03:38:36;15.80;99.90
1568;DHT22;777;47.156;8.326;2022-09-09T03:41:03;15.80;99.90
1568;DHT22;777;47.156;8.326;2022-09-09T03:43:34;15.80;99.90
1568;DHT22;777;47.156;8.326;2022-09-09T03:46:05;15.90;99.90
1568;DHT22;777;47.156;8.326;2022-09-09T03:48:32;15.90;99.90
1568;DHT22;777;47.156;8.326;2022-09-09T03:50:59;15.80;99.90
1568;DHT22;777;47.156;8.326;2022-09-09T03:53:30;15.80;99.90
1568;DHT22;777;47.156;8.326;2022-09-09T03:55:57;15.70;99.90
1568;DHT22;777;47.156;8.326;2022-09-09T03:58:26;15.40;99.90
1568;DHT22;777;47.156;8.326;2022-09-09T04:00:59;15.10;99.90
1568;DHT22;777;47.156;8.326;2022-09-09T04:03:28;15.10;99.90
1568;DHT22;777;47.156;8.326;2022-09-09T04:05:57;15.10;99.90
1568;DHT22;777;47.156;8.326;2022-09-09T04:08:26;15.10;99.90
1568;DHT22;777;47.156;8.326;2022-09-09T04:10:54;15.00;99.90
1568;DHT22;777;47.156;8.326;2022-09-09T04:13:24;15.00;99.90
1568;DHT22;777;47.156;8.326;2022-09-09T04:15:53;15.00;99.90
1568;DHT22;777;47.156;8.326;2022-09-09T04:18:21;14.90;99.90
1568;DHT22;777;47.156;8.326;2022-09-09T04:20:52;14.90;99.90
1568;DHT22;777;47.156;8.326;2022-09-09T04:23:23;14.80;99.90
1568;DHT22;777;47.156;8.326;2022-09-09T04:25:51;14.90;99.90
1568;DHT22;777;47.156;8.326;2022-09-09T04:28:20;14.90;99.90
1568;DHT22;777;47.156;8.326;2022-09-09T04:30:49;14.90;99.90
1568;DHT22;777;47.156;8.326;2022-09-09T04:33:16;14.90;99.90
1568;DHT22;777;47.156;8.326;2022-09-09T04:35:45;14.90;99.90
1568;DHT22;777;47.156;8.326;2022-09-09T04:38:16;15.00;99.90
1568;DHT22;777;47.156;8.326;2022-09-09T04:40:45;15.00;99.90
1568;DHT22;777;47.156;8.326;2022-09-09T04:43:14;15.00;99.90
1568;DHT22;777;47.156;8.326;2022-09-09T04:45:43;15.00;99.90
1568;DHT22;777;47.156;8.326;2022-09-09T04:48:10;15.10;99.90
1568;DHT22;777;47.156;8.326;2022-09-09T04:50:37;15.00;99.90
1568;DHT22;777;47.156;8.326;2022-09-09T04:53:05;15.10;99.90
1568;DHT22;777;47.156;8.326;2022-09-09T04:55:35;15.00;99.90
1568;DHT22;777;47.156;8.326;2022-09-09T04:58:03;15.00;99.90
1568;DHT22;777;47.156;8.326;2022-09-09T05:00:31;15.00;99.90
1568;DHT22;777;47.156;8.326;2022-09-09T05:03:02;15.10;99.90
1568;DHT22;777;47.156;8.326;2022-09-09T05:05:29;15.10;99.90
1568;DHT22;777;47.156;8.326;2022-09-09T05:08:01;15.10;99.90
1568;DHT22;777;47.156;8.326;2022-09-09T05:10:29;15.20;99.90
1568;DHT22;777;47.156;8.326;2022-09-09T05:12:58;15.10;99.90
1568;DHT22;777;47.156;8.326;2022-09-09T05:15:28;15.00;99.90
1568;DHT22;777;47.156;8.326;2022-09-09T05:17:57;15.00;99.90
1568;DHT22;777;47.156;8.326;2022-09-09T05:20:25;15.00;99.90
1568;DHT22;777;47.156;8.326;2022-09-09T05:22:53;15.10;99.90
1568;DHT22;777;47.156;8.326;2022-09-09T05:25:20;15.10;99.90
1568;DHT22;777;47.156;8.326;2022-09-09T05:27:48;15.00;99.90
1568;DHT22;777;47.156;8.326;2022-09-09T05:30:17;15.00;99.90
1568;DHT22;777;47.156;8.326;2022-09-09T05:32:45;14.90;99.90
1568;DHT22;777;47.156;8.326;2022-09-09T05:35:13;14.90;99.90
1568;DHT22;777;47.156;8.326;2022-09-09T05:37:41;14.90;99.90
1568;DHT22;777;47.156;8.326;2022-09-09T05:40:10;14.90;99.90
1568;DHT22;777;47.156;8.326;2022-09-09T05:42:38;14.90;99.90
1568;DHT22;777;47.156;8.326;2022-09-09T05:45:06;14.90;99.90
1568;DHT22;777;47.156;8.326;2022-09-09T05:47:36;14.90;99.90
1568;DHT22;777;47.156;8.326;2022-09-09T05:50:06;14.90;99.90
1568;DHT22;777;47.156;8.326;2022-09-09T05:52:33;14.90;99.90
1568;DHT22;777;47.156;8.326;2022-09-09T05:55:00;15.00;99.90
1568;DHT22;777;47.156;8.326;2022-09-09T05:57:30;15.00;99.90
1568;DHT22;777;47.156;8.326;2022-09-09T05:59:57;15.10;99.90
1568;DHT22;777;47.156;8.326;2022-09-09T06:02:27;15.10;99.90
1568;DHT22;777;47.156;8.326;2022-09-09T06:04:56;15.20;99.90
1568;DHT22;777;47.156;8.326;2022-09-09T06:07:24;15.20;99.90
1568;DHT22;777;47.156;8.326;2022-09-09T06:09:51;15.30;99.90
1568;DHT22;777;47.156;8.326;2022-09-09T06:12:18;15.20;99.90
1568;DHT22;777;47.156;8.326;2022-09-09T06:14:46;15.20;99.90
1568;DHT22;777;47.156;8.326;2022-09-09T06:17:14;15.30;99.90
1568;DHT22;777;47.156;8.326;2022-09-09T06:19:41;15.40;99.90
1568;DHT22;777;47.156;8.326;2022-09-09T06:22:10;15.40;99.90
1568;DHT22;777;47.156;8.326;2022-09-09T06:24:38;15.60;99.90
1568;DHT22;777;47.156;8.326;2022-09-09T06:27:06;15.70;99.90
1568;DHT22;777;47.156;8.326;2022-09-09T06:29:35;16.00;99.90
1568;DHT22;777;47.156;8.326;2022-09-09T06:32:03;16.30;99.90
1568;DHT22;777;47.156;8.326;2022-09-09T06:34:30;17.10;99.90
1568;DHT22;777;47.156;8.326;2022-09-09T06:36:58;18.20;99.90
1568;DHT22;777;47.156;8.326;2022-09-09T06:39:33;19.10;99.90
1568;DHT22;777;47.156;8.326;2022-09-09T06:42:00;19.80;99.90
1568;DHT22;777;47.156;8.326;2022-09-09T06:44:46;20.90;99.90
1568;DHT22;777;47.156;8.326;2022-09-09T06:47:21;21.30;99.90
1568;DHT22;777;47.156;8.326;2022-09-09T06:49:50;22.20;99.90
1568;DHT22;777;47.156;8.326;2022-09-09T06:52:18;22.60;99.90
1568;DHT22;777;47.156;8.326;2022-09-09T06:54:48;22.00;99.90
1568;DHT22;777;47.156;8.326;2022-09-09T06:57:16;21.20;99.90
1568;DHT22;777;47.156;8.326;2022-09-09T06:59:43;20.60;99.90
1568;DHT22;777;47.156;8.326;2022-09-09T07:02:10;19.90;99.90
1568;DHT22;777;47.156;8.326;2022-09-09T07:04:38;19.30;99.90
1568;DHT22;777;47.156;8.326;2022-09-09T07:07:05;19.10;99.90
1568;DHT22;777;47.156;8.326;2022-09-09T07:09:33;18.90;99.90
1568;DHT22;777;47.156;8.326;2022-09-09T07:12:03;18.80;99.90
1568;DHT22;777;47.156;8.326;2022-09-09T07:14:33;18.70;99.90
1568;DHT22;777;47.156;8.326;2022-09-09T07:17:05;18.70;99.90
1568;DHT22;777;47.156;8.326;2022-09-09T07:19:36;18.70;99.90
1568;DHT22;777;47.156;8.326;2022-09-09T07:22:04;18.70;99.90
1568;DHT22;777;47.156;8.326;2022-09-09T07:24:33;18.80;99.90
1568;DHT22;777;47.156;8.326;2022-09-09T07:27:00;20.00;99.90
1568;DHT22;777;47.156;8.326;2022-09-09T07:29:30;21.40;99.90
1568;DHT22;777;47.156;8.326;2022-09-09T07:31:57;22.40;99.90
1568;DHT22;777;47.156;8.326;2022-09-09T07:34:30;22.70;99.90
1568;DHT22;777;47.156;8.326;2022-09-09T07:36:57;23.00;99.90
1568;DHT22;777;47.156;8.326;2022-09-09T07:39:24;23.00;99.90
1568;DHT22;777;47.156;8.326;2022-09-09T07:41:53;22.70;99.90
1568;DHT22;777;47.156;8.326;2022-09-09T07:44:23;22.50;99.90
1568;DHT22;777;47.156;8.326;2022-09-09T07:47:07;22.30;99.90
1568;DHT22;777;47.156;8.326;2022-09-09T07:49:38;22.00;99.90
1568;DHT22;777;47.156;8.326;2022-09-09T07:52:07;21.30;99.90
1568;DHT22;777;47.156;8.326;2022-09-09T07:54:36;21.50;99.90
1568;DHT22;777;47.156;8.326;2022-09-09T07:57:05;22.20;99.90
1568;DHT22;777;47.156;8.326;2022-09-09T07:59:35;22.20;99.90
1568;DHT22;777;47.156;8.326;2022-09-09T08:02:03;21.90;99.90
1568;DHT22;777;47.156;8.326;2022-09-09T08:04:33;21.50;99.90
1568;DHT22;777;47.156;8.326;2022-09-09T08:07:03;21.10;99.90
1568;DHT22;777;47.156;8.326;2022-09-09T08:09:38;21.20;99.90
1568;DHT22;777;47.156;8.326;2022-09-09T08:12:25;21.80;99.90
1568;DHT22;777;47.156;8.326;2022-09-09T08:14:52;21.10;99.90
1568;DHT22;777;47.156;8.326;2022-09-09T08:17:21;20.50;99.90
1568;DHT22;777;47.156;8.326;2022-09-09T08:19:49;20.10;99.90
1568;DHT22;777;47.156;8.326;2022-09-09T08:22:21;20.30;99.90
1568;DHT22;777;47.156;8.326;2022-09-09T08:24:50;20.80;99.90
1568;DHT22;777;47.156;8.326;2022-09-09T08:27:18;21.40;99.90
1568;DHT22;777;47.156;8.326;2022-09-09T08:29:45;21.60;99.90
1568;DHT22;777;47.156;8.326;2022-09-09T08:32:13;21.90;99.90
1568;DHT22;777;47.156;8.326;2022-09-09T08:34:40;22.80;99.90
1568;DHT22;777;47.156;8.326;2022-09-09T08:37:13;23.20;99.90
1568;DHT22;777;47.156;8.326;2022-09-09T08:39:41;23.90;99.90
1568;DHT22;777;47.156;8.326;2022-09-09T08:42:32;24.00;99.90
1568;DHT22;777;47.156;8.326;2022-09-09T08:45:12;24.00;99.90
1568;DHT22;777;47.156;8.326;2022-09-09T08:47:50;23.60;99.90
1568;DHT22;777;47.156;8.326;2022-09-09T08:50:22;22.50;99.90
1568;DHT22;777;47.156;8.326;2022-09-09T08:53:02;22.30;99.90
1568;DHT22;777;47.156;8.326;2022-09-09T08:55:39;22.20;99.90
1568;DHT22;777;47.156;8.326;2022-09-09T08:58:14;22.20;99.90
1568;DHT22;777;47.156;8.326;2022-09-09T09:01:02;23.50;99.90
1568;DHT22;777;47.156;8.326;2022-09-09T09:03:40;25.40;99.90
1568;DHT22;777;47.156;8.326;2022-09-09T09:06:23;27.00;99.90
1568;DHT22;777;47.156;8.326;2022-09-09T09:08:59;28.30;99.90
1568;DHT22;777;47.156;8.326;2022-09-09T09:11:35;28.80;99.90
1568;DHT22;777;47.156;8.326;2022-09-09T09:14:07;30.60;99.90
1568;DHT22;777;47.156;8.326;2022-09-09T09:16:41;31.70;99.90
1568;DHT22;777;47.156;8.326;2022-09-09T09:19:13;31.40;99.90
1568;DHT22;777;47.156;8.326;2022-09-09T09:21:43;31.10;99.90
1568;DHT22;777;47.156;8.326;2022-09-09T09:24:18;31.40;99.90
1568;DHT22;777;47.156;8.326;2022-09-09T09:26:46;29.40;99.90
1568;DHT22;777;47.156;8.326;2022-09-09T09:29:15;28.40;99.90
1568;DHT22;777;47.156;8.326;2022-09-09T09:31:46;27.50;99.90
1568;DHT22;777;47.156;8.326;2022-09-09T09:34:15;25.90;99.90
1568;DHT22;777;47.156;8.326;2022-09-09T09:36:45;24.20;99.90
1568;DHT22;777;47.156;8.326;2022-09-09T09:39:25;22.60;99.90
1568;DHT22;777;47.156;8.326;2022-09-09T09:41:53;21.10;99.90
1568;DHT22;777;47.156;8.326;2022-09-09T09:44:25;19.90;99.90
1568;DHT22;777;47.156;8.326;2022-09-09T09:47:04;18.50;99.90
1568;DHT22;777;47.156;8.326;2022-09-09T09:49:31;17.30;99.90
1568;DHT22;777;47.156;8.326;2022-09-09T09:52:00;16.70;99.90
1568;DHT22;777;47.156;8.326;2022-09-09T09:54:32;16.60;99.90
1568;DHT22;777;47.156;8.326;2022-09-09T09:57:10;16.40;99.90
1568;DHT22;777;47.156;8.326;2022-09-09T09:59:39;16.40;99.90
1568;DHT22;777;47.156;8.326;2022-09-09T10:02:25;16.60;99.90
1568;DHT22;777;47.156;8.326;2022-09-09T10:05:12;16.90;99.90
1568;DHT22;777;47.156;8.326;2022-09-09T10:07:41;17.20;99.90
1568;DHT22;777;47.156;8.326;2022-09-09T10:10:15;18.20;99.90
1568;DHT22;777;47.156;8.326;2022-09-09T10:12:51;20.40;99.90
1568;DHT22;777;47.156;8.326;2022-09-09T10:15:35;22.10;99.90
1568;DHT22;777;47.156;8.326;2022-09-09T10:18:17;23.00;99.90
1568;DHT22;777;47.156;8.326;2022-09-09T10:20:51;22.70;99.90
1568;DHT22;777;47.156;8.326;2022-09-09T10:23:41;23.10;99.90
1568;DHT22;777;47.156;8.326;2022-09-09T10:26:28;23.10;99.90
1568;DHT22;777;47.156;8.326;2022-09-09T10:29:13;23.90;99.90
1568;DHT22;777;47.156;8.326;2022-09-09T10:31:53;25.20;99.90
1568;DHT22;777;47.156;8.326;2022-09-09T10:34:43;26.10;99.90
1568;DHT22;777;47.156;8.326;2022-09-09T10:37:22;26.60;99.90
1568;DHT22;777;47.156;8.326;2022-09-09T10:40:00;26.80;99.90
1568;DHT22;777;47.156;8.326;2022-09-09T10:42:31;27.10;99.90
1568;DHT22;777;47.156;8.326;2022-09-09T10:45:09;27.40;99.90
1568;DHT22;777;47.156;8.326;2022-09-09T10:47:56;28.60;99.90
1568;DHT22;777;47.156;8.326;2022-09-09T10:50:40;30.00;99.90
1568;DHT22;777;47.156;8.326;2022-09-09T10:53:16;29.90;99.90
1568;DHT22;777;47.156;8.326;2022-09-09T10:55:50;29.90;99.90
1568;DHT22;777;47.156;8.326;2022-09-09T10:58:24;29.80;99.90
1568;DHT22;777;47.156;8.326;2022-09-09T11:00:56;29.00;99.90
1568;DHT22;777;47.156;8.326;2022-09-09T11:03:29;28.50;99.90
1568;DHT22;777;47.156;8.326;2022-09-09T11:05:59;28.00;99.90
1568;DHT22;777;47.156;8.326;2022-09-09T11:08:28;28.40;99.90
1568;DHT22;777;47.156;8.326;2022-09-09T11:11:00;28.80;99.90
1568;DHT22;777;47.156;8.326;2022-09-09T11:13:35;29.50;99.90
1568;DHT22;777;47.156;8.326;2022-09-09T11:16:15;30.30;99.90
1568;DHT22;777;47.156;8.326;2022-09-09T11:18:45;30.60;99.90
1568;DHT22;777;47.156;8.326;2022-09-09T11:21:20;30.50;99.90
1568;DHT22;777;47.156;8.326;2022-09-09T11:23:53;29.40;99.90
1568;DHT22;777;47.156;8.326;2022-09-09T11:26:29;28.50;99.90
1568;DHT22;777;47.156;8.326;2022-09-09T11:29:17;28.40;99.90
1568;DHT22;777;47.156;8.326;2022-09-09T11:32:00;28.50;99.90
1568;DHT22;777;47.156;8.326;2022-09-09T11:34:39;29.50;99.90
1568;DHT22;777;47.156;8.326;2022-09-09T11:37:22;30.00;99.90
1568;DHT22;777;47.156;8.326;2022-09-09T11:40:08;28.90;99.90
1568;DHT22;777;47.156;8.326;2022-09-09T11:42:40;29.10;99.90
1568;DHT22;777;47.156;8.326;2022-09-09T11:45:15;30.50;99.90
1568;DHT22;777;47.156;8.326;2022-09-09T11:47:52;30.80;99.90
1568;DHT22;777;47.156;8.326;2022-09-09T11:50:31;29.80;99.30
1568;DHT22;777;47.156;8.326;2022-09-09T11:53:20;29.40;99.90
1568;DHT22;777;47.156;8.326;2022-09-09T11:56:00;30.00;99.90
1568;DHT22;777;47.156;8.326;2022-09-09T11:58:29;31.70;99.90
1568;DHT22;777;47.156;8.326;2022-09-09T12:01:00;32.00;98.70
1568;DHT22;777;47.156;8.326;2022-09-09T12:03:41;30.60;97.00
1568;DHT22;777;47.156;8.326;2022-09-09T12:06:13;30.50;98.30
1568;DHT22;777;47.156;8.326;2022-09-09T12:08:43;30.60;98.50
1568;DHT22;777;47.156;8.326;2022-09-09T12:11:11;31.60;97.10
1568;DHT22;777;47.156;8.326;2022-09-09T12:13:38;32.50;95.60
1568;DHT22;777;47.156;8.326;2022-09-09T12:16:28;31.80;95.10
1568;DHT22;777;47.156;8.326;2022-09-09T12:19:04;32.00;94.50
1568;DHT22;777;47.156;8.326;2022-09-09T12:21:35;31.80;93.50
1568;DHT22;777;47.156;8.326;2022-09-09T12:24:05;30.80;94.30
1568;DHT22;777;47.156;8.326;2022-09-09T12:26:37;31.40;96.10
1568;DHT22;777;47.156;8.326;2022-09-09T12:29:15;33.40;94.30
1568;DHT22;777;47.156;8.326;2022-09-09T12:31:51;32.80;91.70
1568;DHT22;777;47.156;8.326;2022-09-09T12:34:29;30.80;92.90
1568;DHT22;777;47.156;8.326;2022-09-09T12:37:03;30.10;93.50
1568;DHT22;777;47.156;8.326;2022-09-09T12:39:33;31.20;93.50
1568;DHT22;777;47.156;8.326;2022-09-09T12:42:01;30.50;91.60
1568;DHT22;777;47.156;8.326;2022-09-09T12:44:30;29.90;91.80
1568;DHT22;777;47.156;8.326;2022-09-09T12:47:01;30.20;92.70
1568;DHT22;777;47.156;8.326;2022-09-09T12:49:31;30.80;92.80
1568;DHT22;777;47.156;8.326;2022-09-09T12:56:25;35.00;91.40
1568;DHT22;777;47.156;8.326;2022-09-09T12:58:56;36.90;83.80
1568;DHT22;777;47.156;8.326;2022-09-09T13:01:26;35.50;79.90
1568;DHT22;777;47.156;8.326;2022-09-09T13:03:56;33.70;85.10
1568;DHT22;777;47.156;8.326;2022-09-09T13:06:24;34.30;86.50
1568;DHT22;777;47.156;8.326;2022-09-09T13:08:52;35.40;85.20
1568;DHT22;777;47.156;8.326;2022-09-09T13:11:22;35.20;84.10
1568;DHT22;777;47.156;8.326;2022-09-09T13:13:52;35.40;83.80
1568;DHT22;777;47.156;8.326;2022-09-09T13:16:22;34.80;81.00
1568;DHT22;777;47.156;8.326;2022-09-09T13:18:49;32.30;81.70
1568;DHT22;777;47.156;8.326;2022-09-09T13:21:19;29.30;87.10
1568;DHT22;777;47.156;8.326;2022-09-09T13:23:49;27.40;91.30
1568;DHT22;777;47.156;8.326;2022-09-09T13:26:24;26.40;92.90
1568;DHT22;777;47.156;8.326;2022-09-09T13:28:51;26.30;93.90
1568;DHT22;777;47.156;8.326;2022-09-09T13:31:22;26.40;94.90
1568;DHT22;777;47.156;8.326;2022-09-09T13:33:49;28.50;92.30
1568;DHT22;777;47.156;8.326;2022-09-09T13:36:28;30.20;90.60
1568;DHT22;777;47.156;8.326;2022-09-09T13:38:57;30.30;90.60
1568;DHT22;777;47.156;8.326;2022-09-09T13:41:35;31.70;90.30
1568;DHT22;777;47.156;8.326;2022-09-09T13:44:03;33.10;85.80
1568;DHT22;777;47.156;8.326;2022-09-09T13:46:34;31.40;84.50
1568;DHT22;777;47.156;8.326;2022-09-09T13:49:18;31.40;87.20
1568;DHT22;777;47.156;8.326;2022-09-09T13:51:48;32.20;81.40
1568;DHT22;777;47.156;8.326;2022-09-09T13:54:18;30.90;83.60
1568;DHT22;777;47.156;8.326;2022-09-09T13:56:45;29.40;85.80
1568;DHT22;777;47.156;8.326;2022-09-09T13:59:14;27.30;89.90
1568;DHT22;777;47.156;8.326;2022-09-09T14:01:42;25.90;91.70
1568;DHT22;777;47.156;8.326;2022-09-09T14:04:09;25.50;93.00
1568;DHT22;777;47.156;8.326;2022-09-09T14:06:37;25.10;93.70
1568;DHT22;777;47.156;8.326;2022-09-09T14:09:07;24.80;94.00
1568;DHT22;777;47.156;8.326;2022-09-09T14:11:35;24.50;95.60
1568;DHT22;777;47.156;8.326;2022-09-09T14:14:02;24.40;96.10
1568;DHT22;777;47.156;8.326;2022-09-09T14:16:29;25.70;95.40
1568;DHT22;777;47.156;8.326;2022-09-09T14:18:56;26.40;93.30
1568;DHT22;777;47.156;8.326;2022-09-09T14:21:25;29.50;92.50
1568;DHT22;777;47.156;8.326;2022-09-09T14:23:53;32.20;89.90
1568;DHT22;777;47.156;8.326;2022-09-09T14:26:21;33.60;85.90
1568;DHT22;777;47.156;8.326;2022-09-09T14:28:49;35.20;82.50
1568;DHT22;777;47.156;8.326;2022-09-09T14:31:17;33.70;80.20
1568;DHT22;777;47.156;8.326;2022-09-09T14:33:45;30.80;84.00
1568;DHT22;777;47.156;8.326;2022-09-09T14:36:12;28.80;87.10
1568;DHT22;777;47.156;8.326;2022-09-09T14:38:39;29.00;87.50
1568;DHT22;777;47.156;8.326;2022-09-09T14:41:09;30.80;87.30
1568;DHT22;777;47.156;8.326;2022-09-09T14:43:39;32.40;82.80
1568;DHT22;777;47.156;8.326;2022-09-09T14:46:06;33.20;80.70
1568;DHT22;777;47.156;8.326;2022-09-09T14:48:33;31.70;82.40
1568;DHT22;777;47.156;8.326;2022-09-09T14:51:06;28.90;84.30
1568;DHT22;777;47.156;8.326;2022-09-09T14:53:33;27.90;87.50
1568;DHT22;777;47.156;8.326;2022-09-09T14:56:06;29.50;85.40
1568;DHT22;777;47.156;8.326;2022-09-09T14:58:34;29.30;83.60
1568;DHT22;777;47.156;8.326;2022-09-09T15:01:07;27.70;86.30
1568;DHT22;777;47.156;8.326;2022-09-09T15:03:35;27.50;88.10
1568;DHT22;777;47.156;8.326;2022-09-09T15:06:06;29.00;86.30
1568;DHT22;777;47.156;8.326;2022-09-09T15:08:35;29.90;83.70
1568;DHT22;777;47.156;8.326;2022-09-09T15:11:03;30.80;83.30
1568;DHT22;777;47.156;8.326;2022-09-09T15:13:31;29.10;83.80
1568;DHT22;777;47.156;8.326;2022-09-09T15:16:03;26.60;87.10
1568;DHT22;777;47.156;8.326;2022-09-09T15:18:32;24.80;90.10
1568;DHT22;777;47.156;8.326;2022-09-09T15:21:00;23.60;91.80
1568;DHT22;777;47.156;8.326;2022-09-09T15:23:31;23.20;93.60
1568;DHT22;777;47.156;8.326;2022-09-09T15:25:58;23.30;93.50
1568;DHT22;777;47.156;8.326;2022-09-09T15:28:25;23.50;92.20
1568;DHT22;777;47.156;8.326;2022-09-09T15:30:53;22.80;92.70
1568;DHT22;777;47.156;8.326;2022-09-09T15:33:21;24.20;92.40
1568;DHT22;777;47.156;8.326;2022-09-09T15:35:50;25.30;91.30
1568;DHT22;777;47.156;8.326;2022-09-09T15:38:17;24.20;92.10
1568;DHT22;777;47.156;8.326;2022-09-09T15:40:45;23.70;92.00
1568;DHT22;777;47.156;8.326;2022-09-09T15:43:20;24.50;91.30
1568;DHT22;777;47.156;8.326;2022-09-09T15:45:53;23.80;91.80
1568;DHT22;777;47.156;8.326;2022-09-09T15:48:30;23.10;92.90
1568;DHT22;777;47.156;8.326;2022-09-09T15:51:03;22.40;92.30
1568;DHT22;777;47.156;8.326;2022-09-09T15:53:31;22.00;93.70
1568;DHT22;777;47.156;8.326;2022-09-09T15:55:59;22.00;94.80
1568;DHT22;777;47.156;8.326;2022-09-09T15:58:30;22.20;95.30
1568;DHT22;777;47.156;8.326;2022-09-09T16:01:02;22.70;95.50
1568;DHT22;777;47.156;8.326;2022-09-09T16:03:30;24.30;93.90
1568;DHT22;777;47.156;8.326;2022-09-09T16:05:57;26.50;92.30
1568;DHT22;777;47.156;8.326;2022-09-09T16:08:31;28.10;90.10
1568;DHT22;777;47.156;8.326;2022-09-09T16:11:05;29.60;86.90
1568;DHT22;777;47.156;8.326;2022-09-09T16:13:33;31.00;82.80
1568;DHT22;777;47.156;8.326;2022-09-09T16:16:01;30.70;82.40
1568;DHT22;777;47.156;8.326;2022-09-09T16:18:33;30.80;81.20
1568;DHT22;777;47.156;8.326;2022-09-09T16:21:01;30.80;81.30
1568;DHT22;777;47.156;8.326;2022-09-09T16:23:30;29.90;82.00
1568;DHT22;777;47.156;8.326;2022-09-09T16:25:57;27.60;83.80
1568;DHT22;777;47.156;8.326;2022-09-09T16:28:24;25.60;87.50
1568;DHT22;777;47.156;8.326;2022-09-09T16:30:51;24.20;91.10
1568;DHT22;777;47.156;8.326;2022-09-09T16:33:18;22.80;91.60
1568;DHT22;777;47.156;8.326;2022-09-09T16:35:46;22.00;92.50
1568;DHT22;777;47.156;8.326;2022-09-09T16:38:13;21.80;93.60
1568;DHT22;777;47.156;8.326;2022-09-09T16:40:42;21.80;93.80
1568;DHT22;777;47.156;8.326;2022-09-09T16:43:09;21.50;94.20
1568;DHT22;777;47.156;8.326;2022-09-09T16:45:42;21.10;96.90
1568;DHT22;777;47.156;8.326;2022-09-09T16:48:10;20.70;95.90
1568;DHT22;777;47.156;8.326;2022-09-09T16:50:37;20.50;96.90